Time;durP1;ratioP1;P1;durP2;ratioP2;P2;SDS_P1;SDS_P2;PMS_P1;PMS_P2;Temp;Humidity;BMP_temperature;BMP_pressure;BME280_temperature;BME280_humidity;BME280_pressure;Samples;Min_cycle;Max_cycle;Signal;HPM_P1;HPM_P2
2024/03/22 06:08:20;;;;;;;;;;;;;;;5.00;100.00;100538.22;1859878;76;20100;-72
2024/03/22 06:10:47;;;;;;;;;;;;;;;4.96;100.00;100537.89;1820465;77;20131;-82
2024/03/22 06:13:17;;;;;;;;;;;;;;;4.99;100.00;100541.69;1804737;77;20108;-77
2024/03/22 06:15:46;;;;;;;;;;;;;;;5.02;100.00;100546.33;1822266;78;20126;-73
2024/03/22 06:18:22;;;;;;;;;;;;;;;5.02;100.00;100548.91;1824270;78;20098;-76
2024/03/22 06:20:48;;;;;;;;;;;;;;;5.08;100.00;100545.77;1819422;77;20109;-72
2024/03/22 06:23:15;;;;;;;;;;;;;;;5.19;100.00;100542.48;1818348;78;20452;-69
2024/03/22 06:25:44;;;;;;;;;;;;;;;5.34;100.00;100547.22;1816829;78;20157;-72
2024/03/22 06:28:11;;;;;;;;;;;;;;;5.51;100.00;100541.17;1789137;79;20393;-71
2024/03/22 06:30:37;;;;;;;;;;;;;;;5.64;100.00;100550.70;1805134;78;20762;-70
2024/03/22 06:33:04;;;;;;;;;;;;;;;5.76;100.00;100545.20;1828487;78;20094;-68
2024/03/22 06:35:31;;;;;;;;;;;;;;;5.87;100.00;100552.20;1804567;78;20133;-69
2024/03/22 06:37:57;;;;;;;;;;;;;;;6.01;100.00;100555.70;1816825;78;20376;-69
2024/03/22 06:40:24;;;;;;;;;;;;;;;6.17;100.00;100549.64;1825263;78;20127;-68
2024/03/22 06:42:50;;;;;;;;;;;;;;;6.30;100.00;100549.23;1812559;78;20130;-69
2024/03/22 06:45:17;;;;;;;;;;;;;;;6.38;100.00;100553.33;1815291;78;20165;-70
2024/03/22 06:47:45;;;;;;;;;;;;;;;6.40;100.00;100552.36;1809229;78;20164;-67
2024/03/22 06:50:11;;;;;;;;;;;;;;;6.43;100.00;100553.56;1815512;78;20131;-65
2024/03/22 06:52:38;;;;;;;;;;;;;;;6.53;100.00;100549.80;1819532;78;20386;-67
2024/03/22 06:55:06;;;;;;;;;;;;;;;6.63;100.00;100551.22;1808409;78;20116;-69
2024/03/22 06:57:35;;;;;;;;;;;;;;;6.80;100.00;100555.02;1819491;78;20107;-69
2024/03/22 07:00:02;;;;;;;;;;;;;;;7.01;100.00;100551.70;1800369;78;20415;-66
2024/03/22 07:02:28;;;;;;;;;;;;;;;7.21;100.00;100548.43;1819825;78;20396;-66
2024/03/22 07:04:55;;;;;;;;;;;;;;;7.38;100.00;100543.98;1796656;78;20126;-68
2024/03/22 07:07:21;;;;;;;;;;;;;;;7.54;100.00;100543.84;1812130;78;20153;-70
2024/03/22 07:09:48;;;;;;;;;;;;;;;7.69;100.00;100540.23;1801896;79;20149;-69
2024/03/22 07:12:14;;;;;;;;;;;;;;;7.90;100.00;100544.25;1820372;79;20151;-71
2024/03/22 07:14:40;;;;;;;;;;;;;;;8.18;100.00;100541.00;1780332;79;20156;-68
2024/03/22 07:17:08;;;;;;;;;;;;;;;8.49;100.00;100541.98;1805920;79;20157;-68
2024/03/22 07:19:34;;;;;;;;;;;;;;;8.83;100.00;100544.52;1815506;79;20109;-69
2024/03/22 07:22:01;;;;;;;;;;;;;;;9.17;100.00;100540.94;1807422;79;20103;-68
2024/03/22 07:24:27;;;;;;;;;;;;;;;9.42;100.00;100532.92;1803158;79;20145;-69
2024/03/22 07:26:54;;;;;;;;;;;;;;;9.62;100.00;100526.38;1810525;77;20133;-68
2024/03/22 07:29:21;;;;;;;;;;;;;;;9.85;100.00;100536.22;1801880;77;20101;-69
2024/03/22 07:31:47;;;;;;;;;;;;;;;10.08;100.00;100530.80;1808173;79;20129;-70
2024/03/22 07:34:35;;;;;;;;;;;;;;;10.33;100.00;100535.75;1820044;79;20121;-69
2024/03/22 07:37:01;;;;;;;;;;;;;;;10.67;100.00;100537.12;1788968;79;20122;-71
2024/03/22 07:39:29;;;;;;;;;;;;;;;11.03;100.00;100534.46;1802304;79;20398;-68
2024/03/22 07:41:55;;;;;;;;;;;;;;;11.29;100.00;100534.44;1801242;77;20120;-69
2024/03/22 07:44:24;;;;;;;;;;;;;;;11.36;100.00;100531.06;1814679;79;20151;-69
2024/03/22 07:46:51;;;;;;;;;;;;;;;11.46;99.41;100527.06;1822187;79;20125;-71
2024/03/22 07:49:18;;;;;;;;;;;;;;;11.63;100.00;100524.86;1814038;79;20157;-69
2024/03/22 07:51:44;;;;;;;;;;;;;;;11.88;98.50;100527.90;1808930;79;20391;-69
2024/03/22 07:54:10;;;;;;;;;;;;;;;12.13;98.00;100526.55;1818085;79;20180;-70
2024/03/22 07:56:37;;;;;;;;;;;;;;;12.20;84.94;100523.53;1809017;79;20163;-76
2024/03/22 07:59:04;;;;;;;;;;;;;;;12.18;85.77;100520.62;1813583;79;20365;-68
2024/03/22 08:01:31;;;;;;;;;;;;;;;12.36;84.32;100519.62;1807166;79;20131;-72
2024/03/22 08:03:57;;;;;;;;;;;;;;;12.46;82.49;100516.84;1766961;80;20140;-71
2024/03/22 08:06:23;;;;;;;;;;;;;;;12.41;81.45;100518.87;1764437;81;20443;-70
2024/03/22 08:08:51;;;;;;;;;;;;;;;12.43;82.22;100515.71;1731651;81;20167;-70
2024/03/22 08:11:17;;;;;;;;;;;;;;;12.59;80.55;100514.39;1753805;81;20139;-71
2024/03/22 08:13:43;;;;;;;;;;;;;;;12.74;79.17;100508.30;1756293;81;20106;-72
2024/03/22 08:16:09;;;;;;;;;;;;;;;12.91;77.26;100512.07;1756591;81;20163;-74
2024/03/22 08:18:36;;;;;;;;;;;;;;;13.02;75.87;100504.45;1759144;81;20662;-72
2024/03/22 08:21:02;;;;;;;;;;;;;;;13.03;76.13;100501.37;1756632;81;20218;-76
2024/03/22 08:23:29;;;;;;;;;;;;;;;13.16;76.11;100494.52;1757513;81;20282;-72
2024/03/22 08:25:56;;;;;;;;;;;;;;;13.36;74.05;100495.93;1764038;81;20153;-70
2024/03/22 08:28:23;;;;;;;;;;;;;;;13.53;72.81;100489.69;1769972;81;20129;-65
2024/03/22 08:30:49;;;;;;;;;;;;;;;13.68;71.24;100485.64;1767484;81;20584;-67
2024/03/22 08:33:19;;;;;;;;;;;;;;;13.71;70.26;100479.38;1776585;79;20148;-76
2024/03/22 08:35:48;;;;;;;;;;;;;;;13.73;69.99;100483.21;1778460;79;20470;-75
2024/03/22 08:38:14;;;;;;;;;;;;;;;13.80;69.36;100481.43;1774800;80;20092;-71
2024/03/22 08:40:41;;;;;;;;;;;;;;;13.91;67.92;100484.23;1775756;80;20110;-72
2024/03/22 08:43:07;;;;;;;;;;;;;;;13.91;66.43;100486.00;1782584;80;20124;-71
2024/03/22 08:45:34;;;;;;;;;;;;;;;13.88;66.36;100490.12;1778453;80;20454;-82
2024/03/22 08:48:01;;;;;;;;;;;;;;;13.88;65.88;100477.87;1779073;79;20116;-73
2024/03/22 08:50:27;;;;;;;;;;;;;;;13.93;64.79;100478.89;1775444;80;20146;-73
2024/03/22 08:52:53;;;;;;;;;;;;;;;14.00;64.55;100477.08;1780314;80;20469;-71
2024/03/22 08:55:20;;;;;;;;;;;;;;;14.06;64.21;100475.02;1752680;80;20167;-73
2024/03/22 08:57:46;;;;;;;;;;;;;;;14.10;64.59;100465.55;1771340;80;20152;-69
2024/03/22 09:00:13;;;;;;;;;;;;;;;14.10;63.10;100459.01;1766849;80;20441;-75
2024/03/22 09:02:40;;;;;;;;;;;;;;;14.07;63.18;100453.13;1756710;82;20404;-76
2024/03/22 09:05:08;;;;;;;;;;;;;;;14.01;63.17;100450.42;1754723;82;20087;-74
2024/03/22 09:07:34;;;;;;;;;;;;;;;13.94;63.10;100450.00;1770707;81;20105;-73
2024/03/22 09:10:01;;;;;;;;;;;;;;;13.88;62.44;100443.00;1769073;81;20125;-74
2024/03/22 09:12:28;;;;;;;;;;;;;;;13.80;62.69;100438.71;1778703;80;20110;-72
2024/03/22 09:14:54;;;;;;;;;;;;;;;13.69;62.73;100434.14;1770462;80;20105;-71
2024/03/22 09:17:22;;;;;;;;;;;;;;;13.60;62.56;100430.31;1743333;82;20155;-73
2024/03/22 09:19:49;;;;;;;;;;;;;;;13.50;62.31;100429.23;1760482;80;20107;-72
2024/03/22 09:22:15;;;;;;;;;;;;;;;13.33;63.38;100427.64;1740256;82;20094;-70
2024/03/22 09:24:41;;;;;;;;;;;;;;;13.19;62.15;100419.82;1745468;80;20106;-73
2024/03/22 09:27:10;;;;;;;;;;;;;;;13.05;62.32;100420.23;1772173;80;20112;-76
2024/03/22 09:29:38;;;;;;;;;;;;;;;12.92;63.47;100424.05;1743748;82;20115;-75
2024/03/22 09:32:05;;;;;;;;;;;;;;;12.86;62.95;100416.56;1777027;80;20121;-73
2024/03/22 09:34:32;;;;;;;;;;;;;;;12.73;62.52;100418.23;1740444;81;20103;-74
2024/03/22 09:36:59;;;;;;;;;;;;;;;12.62;64.03;100414.48;1749028;82;20137;-71
2024/03/22 09:39:27;;;;;;;;;;;;;;;12.56;64.09;100417.91;1766449;80;20133;-74
2024/03/22 09:41:55;;;;;;;;;;;;;;;12.48;62.80;100413.59;1791839;80;20108;-71
2024/03/22 09:44:22;;;;;;;;;;;;;;;12.35;61.48;100412.17;1790386;80;20159;-73
2024/03/22 09:46:48;;;;;;;;;;;;;;;12.20;62.32;100416.48;1763750;80;20137;-76
2024/03/22 09:49:15;;;;;;;;;;;;;;;12.09;64.36;100404.50;1763435;80;20482;-73
2024/03/22 09:51:44;;;;;;;;;;;;;;;12.03;65.79;100404.84;1762483;80;20478;-74
2024/03/22 09:54:11;;;;;;;;;;;;;;;12.03;65.85;100401.77;1768440;80;20115;-71
2024/03/22 09:56:40;;;;;;;;;;;;;;;12.10;66.30;100410.56;1786646;79;20178;-69
2024/03/22 09:59:06;;;;;;;;;;;;;;;12.19;66.73;100412.66;1771230;80;20119;-69
2024/03/22 10:01:34;;;;;;;;;;;;;;;12.28;67.13;100400.39;1764286;80;20110;-69
2024/03/22 10:04:00;;;;;;;;;;;;;;;12.37;67.56;100392.03;1762254;80;20171;-68
2024/03/22 10:06:31;;;;;;;;;;;;;;;12.45;67.85;100394.17;1770926;80;20096;-69
2024/03/22 10:08:59;;;;;;;;;;;;;;;12.50;67.55;100397.36;1755804;80;20407;-69
2024/03/22 10:11:28;;;;;;;;;;;;;;;12.57;67.38;100399.53;1772114;80;20190;-67
2024/03/22 10:13:55;;;;;;;;;;;;;;;12.64;66.81;100399.55;1758746;80;20100;-71
2024/03/22 10:16:23;;;;;;;;;;;;;;;12.70;66.02;100403.58;1784436;79;20121;-71
2024/03/22 10:18:50;;;;;;;;;;;;;;;12.76;65.22;100405.00;1787160;79;20132;-72
2024/03/22 10:21:19;;;;;;;;;;;;;;;12.82;64.43;100396.77;1783151;79;20091;-68
2024/03/22 10:23:48;;;;;;;;;;;;;;;12.89;64.15;100388.94;1788570;79;20102;-67
2024/03/22 10:26:14;;;;;;;;;;;;;;;12.95;63.13;100388.11;1771195;80;20484;-67
2024/03/22 10:28:46;;;;;;;;;;;;;;;13.02;63.22;100393.81;1792140;79;20112;-68
2024/03/22 10:31:16;;;;;;;;;;;;;;;13.07;62.37;100394.84;1791194;79;20157;-73
2024/03/22 10:33:47;;;;;;;;;;;;;;;13.09;61.56;100397.73;1787636;79;20487;-73
2024/03/22 10:36:13;;;;;;;;;;;;;;;13.10;61.11;100383.73;1784004;79;20440;-71
2024/03/22 10:38:40;;;;;;;;;;;;;;;13.10;58.90;100387.66;1784583;79;20122;-74
2024/03/22 10:41:06;;;;;;;;;;;;;;;13.04;59.33;100384.10;1795799;79;20389;-67
2024/03/22 10:43:33;;;;;;;;;;;;;;;13.02;59.10;100381.58;1759686;79;20110;-69
2024/03/22 10:46:06;;;;;;;;;;;;;;;13.08;59.87;100375.14;1784505;79;20097;-71
2024/03/22 10:48:33;;;;;;;;;;;;;;;13.20;58.92;100374.41;1788403;79;20163;-67
2024/03/22 10:51:02;;;;;;;;;;;;;;;13.34;58.79;100369.63;1785166;79;20291;-72
2024/03/22 10:53:31;;;;;;;;;;;;;;;13.47;60.09;100361.87;1791512;79;20465;-68
2024/03/22 10:55:59;;;;;;;;;;;;;;;13.58;59.73;100366.80;1787020;78;20197;-70
2024/03/22 10:58:26;;;;;;;;;;;;;;;13.64;59.07;100370.31;1791189;78;20172;-74
2024/03/22 11:00:57;;;;;;;;;;;;;;;13.68;59.11;100366.56;1791010;79;20134;-72
2024/03/22 11:03:25;;;;;;;;;;;;;;;13.73;58.92;100366.75;1785312;79;20547;-69
2024/03/22 11:06:01;;;;;;;;;;;;;;;13.70;58.02;100366.47;1787444;80;20130;-70
2024/03/22 11:08:30;;;;;;;;;;;;;;;13.64;58.54;100365.08;1783428;80;20139;-68
2024/03/22 11:11:05;;;;;;;;;;;;;;;13.64;59.14;100365.55;1785639;79;20089;-66
2024/03/22 11:13:35;;;;;;;;;;;;;;;13.65;59.12;100352.37;1771280;79;20122;-70
2024/03/22 11:16:03;;;;;;;;;;;;;;;13.69;58.83;100351.70;1791310;79;20175;-71
2024/03/22 11:18:30;;;;;;;;;;;;;;;13.72;59.27;100349.36;1783870;79;20165;-69
2024/03/22 11:20:56;;;;;;;;;;;;;;;13.77;59.41;100348.14;1782675;79;20108;-69
2024/03/22 11:23:23;;;;;;;;;;;;;;;13.85;59.69;100343.72;1782598;79;20160;-70
2024/03/22 11:25:50;;;;;;;;;;;;;;;13.90;59.66;100347.72;1781545;80;20187;-69
2024/03/22 11:28:18;;;;;;;;;;;;;;;13.92;60.24;100341.08;1764900;79;20174;-72
2024/03/22 11:30:45;;;;;;;;;;;;;;;13.95;59.94;100335.64;1787585;79;20166;-70
2024/03/22 11:33:12;;;;;;;;;;;;;;;13.93;59.14;100336.22;1789177;79;20161;-70
2024/03/22 11:35:39;;;;;;;;;;;;;;;13.89;58.55;100328.19;1786060;79;20108;-71
2024/03/22 11:38:05;;;;;;;;;;;;;;;13.82;58.76;100333.45;1757068;81;20177;-70
2024/03/22 11:40:35;;;;;;;;;;;;;;;13.78;59.08;100328.03;1760622;80;20132;-66
2024/03/22 11:43:01;;;;;;;;;;;;;;;13.78;59.46;100328.03;1761817;80;20138;-66
2024/03/22 11:45:28;;;;;;;;;;;;;;;13.80;59.24;100323.08;1757925;80;20133;-68
2024/03/22 11:47:54;;;;;;;;;;;;;;;13.79;59.02;100313.55;1766166;80;20160;-67
2024/03/22 11:50:20;;;;;;;;;;;;;;;13.77;58.63;100308.04;1755596;80;20122;-66
2024/03/22 11:52:47;;;;;;;;;;;;;;;13.73;58.45;100310.48;1783400;79;20138;-69
2024/03/22 11:55:14;;;;;;;;;;;;;;;13.66;57.89;100304.33;1788772;79;20109;-70
2024/03/22 11:57:41;;;;;;;;;;;;;;;13.58;57.36;100299.25;1792569;79;20126;-71
2024/03/22 12:00:12;;;;;;;;;;;;;;;13.46;57.99;100300.86;1785721;79;20093;-69
2024/03/22 12:02:41;;;;;;;;;;;;;;;13.44;58.79;100299.28;1783993;80;20162;-71
2024/03/22 12:05:11;;;;;;;;;;;;;;;13.45;58.49;100288.72;1789013;79;20155;-71
2024/03/22 12:07:43;;;;;;;;;;;;;;;13.49;58.56;100291.98;1790502;79;20144;-71
2024/03/22 12:10:10;;;;;;;;;;;;;;;13.46;57.82;100287.78;1771129;79;20114;-72
2024/03/22 12:12:36;;;;;;;;;;;;;;;13.43;58.00;100288.45;1790197;79;20163;-69
2024/03/22 12:15:04;;;;;;;;;;;;;;;13.40;58.34;100284.71;1792970;79;20382;-71
2024/03/22 12:17:30;;;;;;;;;;;;;;;13.39;58.03;100285.65;1787747;80;20161;-74
2024/03/22 12:19:57;;;;;;;;;;;;;;;13.40;58.59;100273.78;1789848;78;20111;-75
2024/03/22 12:22:25;;;;;;;;;;;;;;;13.40;58.10;100276.40;1810884;78;20178;-72
2024/03/22 12:24:52;;;;;;;;;;;;;;;13.41;57.98;100269.39;1783547;79;20123;-67
2024/03/22 12:27:18;;;;;;;;;;;;;;;13.39;57.95;100266.03;1785804;79;20090;-67
2024/03/22 12:29:44;;;;;;;;;;;;;;;13.36;57.93;100263.14;1787127;79;20104;-69
2024/03/22 12:32:10;;;;;;;;;;;;;;;13.33;58.23;100251.56;1804308;79;20846;-68
2024/03/22 12:34:36;;;;;;;;;;;;;;;13.33;58.93;100255.02;1771355;79;20128;-73
2024/03/22 12:37:03;;;;;;;;;;;;;;;13.36;59.07;100244.83;1769207;80;20144;-72
2024/03/22 12:39:32;;;;;;;;;;;;;;;13.40;59.07;100249.41;1763103;80;20555;-68
2024/03/22 12:42:10;;;;;;;;;;;;;;;13.46;58.84;100235.93;1755707;80;20165;-78
2024/03/22 12:44:37;;;;;;;;;;;;;;;13.43;58.48;100234.34;1750258;80;20146;-70
2024/03/22 12:47:03;;;;;;;;;;;;;;;13.38;57.91;100232.50;1760950;80;20150;-69
2024/03/22 12:49:30;;;;;;;;;;;;;;;13.27;58.25;100241.49;1758348;80;20157;-73
2024/03/22 12:51:57;;;;;;;;;;;;;;;13.19;59.10;100234.16;1756238;80;20110;-73
2024/03/22 12:54:25;;;;;;;;;;;;;;;13.14;59.10;100233.58;1764337;80;20102;-74
2024/03/22 12:56:51;;;;;;;;;;;;;;;13.10;59.19;100228.17;1765346;80;20113;-72
2024/03/22 12:59:17;;;;;;;;;;;;;;;13.03;59.78;100226.87;1754255;80;20104;-74
2024/03/22 13:01:44;;;;;;;;;;;;;;;13.00;59.88;100219.23;1754390;80;20123;-74
2024/03/22 13:04:11;;;;;;;;;;;;;;;12.95;60.16;100219.52;1754921;80;20118;-72
2024/03/22 13:06:37;;;;;;;;;;;;;;;12.91;60.52;100219.33;1755442;80;20116;-74
2024/03/22 13:09:04;;;;;;;;;;;;;;;12.89;60.47;100219.05;1752497;80;20098;-77
2024/03/22 13:11:32;;;;;;;;;;;;;;;12.85;61.00;100217.09;1753503;80;20126;-73
2024/03/22 13:13:59;;;;;;;;;;;;;;;12.82;60.71;100217.75;1753341;80;20363;-73
2024/03/22 13:16:27;;;;;;;;;;;;;;;12.73;60.40;100208.74;1758557;80;20117;-73
2024/03/22 13:18:54;;;;;;;;;;;;;;;12.65;60.74;100218.82;1759766;80;20128;-72
2024/03/22 13:21:20;;;;;;;;;;;;;;;12.57;60.90;100204.92;1758300;80;20143;-70
2024/03/22 13:23:47;;;;;;;;;;;;;;;12.48;61.33;100201.56;1756407;80;20117;-68
2024/03/22 13:26:13;;;;;;;;;;;;;;;12.40;61.70;100205.10;1778227;80;20115;-68
2024/03/22 13:28:41;;;;;;;;;;;;;;;12.30;62.14;100197.48;1756550;80;20094;-69
2024/03/22 13:31:08;;;;;;;;;;;;;;;12.26;63.17;100194.21;1757102;80;20103;-67
2024/03/22 13:33:34;;;;;;;;;;;;;;;12.29;62.73;100195.80;1753672;80;20099;-71
2024/03/22 13:36:02;;;;;;;;;;;;;;;12.33;62.70;100194.22;1761112;80;20161;-74
2024/03/22 13:38:29;;;;;;;;;;;;;;;12.37;62.61;100189.65;1746208;81;20183;-65
2024/03/22 13:40:57;;;;;;;;;;;;;;;12.38;62.75;100183.50;1775378;80;20104;-68
2024/03/22 13:43:24;;;;;;;;;;;;;;;12.40;62.74;100184.67;1746099;81;20107;-71
2024/03/22 13:45:53;;;;;;;;;;;;;;;12.41;62.45;100184.58;1750975;82;20124;-66
2024/03/22 13:48:24;;;;;;;;;;;;;;;12.42;62.38;100183.65;1749492;80;20135;-69
2024/03/22 13:51:03;;;;;;;;;;;;;;;12.38;62.39;100178.73;1727082;83;20107;-71
2024/03/22 13:53:27;;;;;;;;;;;;;;;12.33;62.61;100175.09;1727437;82;20189;-69
2024/03/22 13:55:53;;;;;;;;;;;;;;;12.28;62.72;100175.84;1761173;80;20151;-70
2024/03/22 13:58:20;;;;;;;;;;;;;;;12.25;63.37;100177.33;1755893;80;20267;-71
2024/03/22 14:00:47;;;;;;;;;;;;;;;12.23;63.68;100174.81;1718867;82;20110;-70
2024/03/22 14:03:14;;;;;;;;;;;;;;;12.23;63.71;100170.06;1752424;82;20476;-72
2024/03/22 14:05:41;;;;;;;;;;;;;;;12.20;63.67;100169.78;1754319;82;20189;-74
2024/03/22 14:08:17;;;;;;;;;;;;;;;12.20;63.87;100165.86;1782226;79;20168;-69
2024/03/22 14:10:41;;;;;;;;;;;;;;;12.21;64.20;100161.48;1739152;82;20152;-75
2024/03/22 14:13:11;;;;;;;;;;;;;;;12.21;64.09;100158.40;1758020;81;20180;-69
2024/03/22 14:15:39;;;;;;;;;;;;;;;12.20;64.08;100158.03;1773317;80;20140;-70
2024/03/22 14:18:06;;;;;;;;;;;;;;;12.20;64.30;100159.33;1749935;81;20112;-67
2024/03/22 14:20:33;;;;;;;;;;;;;;;12.21;64.11;100149.73;1755132;81;20115;-71
2024/03/22 14:22:59;;;;;;;;;;;;;;;12.17;64.45;100145.63;1747707;81;20437;-74
2024/03/22 14:25:29;;;;;;;;;;;;;;;12.12;64.34;100146.36;1752303;81;20167;-69
2024/03/22 14:28:00;;;;;;;;;;;;;;;12.05;64.53;100141.14;1760835;80;20418;-71
2024/03/22 14:30:28;;;;;;;;;;;;;;;11.97;64.84;100139.02;1769037;80;20144;-70
2024/03/22 14:32:54;;;;;;;;;;;;;;;11.89;65.17;100138.17;1758866;82;20111;-68
2024/03/22 14:35:22;;;;;;;;;;;;;;;11.81;65.89;100133.87;1767260;80;20148;-72
2024/03/22 14:37:48;;;;;;;;;;;;;;;11.74;66.16;100131.67;1778645;80;20426;-66
2024/03/22 14:40:14;;;;;;;;;;;;;;;11.65;66.42;100127.84;1764076;80;20127;-68
2024/03/22 14:42:41;;;;;;;;;;;;;;;11.56;67.12;100123.19;1783577;80;20160;-72
2024/03/22 14:45:08;;;;;;;;;;;;;;;11.46;67.42;100118.97;1755714;80;20116;-67
2024/03/22 14:47:36;;;;;;;;;;;;;;;11.38;67.80;100122.94;1794780;79;20564;-69
2024/03/22 14:50:03;;;;;;;;;;;;;;;11.29;68.46;100116.48;1756894;80;20162;-75
2024/03/22 14:52:33;;;;;;;;;;;;;;;11.21;68.67;100118.22;1763938;80;20100;-71
2024/03/22 14:54:59;;;;;;;;;;;;;;;11.16;69.25;100118.14;1763401;80;20133;-74
2024/03/22 14:57:26;;;;;;;;;;;;;;;11.14;69.84;100114.78;1783974;79;20171;-72
2024/03/22 14:59:53;;;;;;;;;;;;;;;11.12;69.98;100117.47;1765391;80;20451;-72
